Time;durP1;ratioP1;P1;durP2;ratioP2;P2;SDS_P1;SDS_P2;PMS_P1;PMS_P2;Temp;Humidity;BMP_temperature;BMP_pressure;BME280_temperature;BME280_humidity;BME280_pressure;Samples;Min_cycle;Max_cycle;Signal;HPM_P1;HPM_P2
2021/03/18 00:00:49;;;;;;;5.70;5.10;;;1.10;99.90;;;1.71;73.06;94677.25;5044111;28;20196;-71
2021/03/18 00:03:18;;;;;;;8.23;5.43;;;1.10;99.90;;;1.62;73.08;94672.34;5038487;28;20244;-71
2021/03/18 00:05:45;;;;;;;6.63;5.73;;;1.10;99.90;;;1.63;72.78;94676.56;5062878;28;20231;-70
2021/03/18 00:08:14;;;;;;;6.43;5.70;;;1.10;99.90;;;1.52;72.77;94676.09;5042250;28;20666;-70
2021/03/18 00:10:40;;;;;;;6.30;5.17;;;1.00;99.90;;;1.47;72.96;94690.72;5063575;28;20264;-71
2021/03/18 00:13:07;;;;;;;6.60;5.90;;;0.90;99.90;;;1.52;72.75;94678.72;5066235;28;20168;-70
2021/03/18 00:15:35;;;;;;;6.53;5.53;;;1.00;99.90;;;1.50;72.81;94672.88;5065603;28;20266;-71
2021/03/18 00:18:05;;;;;;;6.07;5.47;;;1.00;99.90;;;1.65;72.89;94683.22;5049579;28;20207;-71
2021/03/18 00:20:31;;;;;;;6.60;5.50;;;1.10;99.90;;;1.61;72.85;94671.56;5049808;28;20179;-71
2021/03/18 00:22:57;;;;;;;6.57;5.63;;;1.10;99.90;;;1.67;72.52;94672.59;5049543;28;20187;-71
2021/03/18 00:25:23;;;;;;;8.13;6.00;;;1.10;99.90;;;1.64;72.87;94680.81;5064940;28;20560;-71
2021/03/18 00:27:49;;;;;;;7.20;6.10;;;1.10;99.90;;;1.48;72.72;94682.69;5046160;28;20207;-70
2021/03/18 00:30:18;;;;;;;6.03;4.93;;;1.00;99.90;;;1.49;72.86;94673.06;5048034;28;20172;-70
2021/03/18 00:32:45;;;;;;;7.30;5.50;;;1.00;99.90;;;1.52;73.42;94672.69;5051587;28;20198;-71
2021/03/18 00:35:13;;;;;;;6.83;5.67;;;1.00;99.90;;;1.43;72.89;94669.41;5068135;28;20515;-72
2021/03/18 00:37:44;;;;;;;7.27;5.73;;;0.90;99.90;;;1.44;72.89;94668.38;5046509;28;20192;-71
2021/03/18 00:40:13;;;;;;;7.07;5.67;;;0.90;99.90;;;1.51;73.67;94661.41;5045920;28;20264;-71
2021/03/18 00:43:04;;;;;;;6.80;5.80;;;0.90;99.90;;;1.52;73.37;94672.69;5046267;28;20637;-71
2021/03/18 00:45:33;;;;;;;7.63;5.97;;;1.00;99.90;;;1.43;73.62;94668.59;5032320;28;20218;-71
2021/03/18 00:48:00;;;;;;;7.27;5.50;;;0.90;99.90;;;1.36;73.43;94675.56;5062664;28;20234;-71
2021/03/18 00:50:50;;;;;;;6.30;5.37;;;0.80;99.90;;;1.34;73.43;94673.13;5071316;28;20226;-71
2021/03/18 00:53:36;;;;;;;7.10;5.90;;;0.90;99.90;;;1.24;72.86;94677.91;5053471;28;20202;-71
2021/03/18 00:56:11;;;;;;;7.20;6.10;;;0.80;99.90;;;1.22;73.44;94676.44;5043936;28;20175;-71
2021/03/18 00:58:39;;;;;;;7.03;5.80;;;0.80;99.90;;;1.26;73.34;94680.31;5048708;28;20198;-71
2021/03/18 01:01:06;;;;;;;7.57;6.57;;;0.70;99.90;;;1.19;73.00;94663.78;5054610;28;20784;-69
2021/03/18 01:03:36;;;;;;;7.70;6.50;;;0.70;99.90;;;1.09;73.22;94663.28;5037047;28;20168;-70
2021/03/18 01:06:33;;;;;;;7.67;6.87;;;0.60;99.90;;;1.02;73.65;94661.44;5057270;28;20215;-71
2021/03/18 01:09:12;;;;;;;9.30;7.23;;;0.50;99.90;;;0.95;73.14;94670.19;5039790;28;20187;-71
2021/03/18 01:11:40;;;;;;;11.40;8.50;;;0.40;99.90;;;0.86;73.20;94660.88;5069066;28;20199;-71
2021/03/18 01:14:12;;;;;;;10.33;8.00;;;0.30;99.90;;;0.93;73.43;94673.00;5023063;28;20624;-71
2021/03/18 01:16:53;;;;;;;13.83;8.50;;;0.30;99.90;;;1.01;73.44;94677.25;5052605;28;20170;-71
2021/03/18 01:19:23;;;;;;;9.07;7.53;;;0.30;99.90;;;1.10;73.33;94668.34;5036536;28;20678;-71
2021/03/18 01:21:55;;;;;;;9.70;8.30;;;0.40;99.90;;;1.07;73.21;94655.66;5067686;28;20176;-71
2021/03/18 01:24:23;;;;;;;10.43;8.30;;;0.40;99.90;;;1.07;73.60;94654.84;5052565;28;20191;-71
2021/03/18 01:26:49;;;;;;;13.53;9.57;;;0.50;99.90;;;1.12;73.75;94631.59;5052572;28;20663;-71
2021/03/18 01:29:15;;;;;;;10.17;8.13;;;0.50;99.90;;;1.12;73.82;94636.81;5042110;28;20696;-71
2021/03/18 01:31:43;;;;;;;9.47;7.73;;;0.50;99.90;;;1.22;73.67;94635.50;5066409;28;20200;-71
2021/03/18 01:34:09;;;;;;;9.50;8.00;;;0.50;99.90;;;1.22;73.64;94648.56;5080491;28;20196;-71
2021/03/18 01:36:36;;;;;;;11.23;7.63;;;0.60;99.90;;;1.35;73.53;94624.34;5052888;28;20197;-71
2021/03/18 01:39:06;;;;;;;10.60;8.50;;;0.70;99.90;;;1.29;73.74;94636.34;5051559;28;20176;-71
2021/03/18 01:41:31;;;;;;;9.50;7.53;;;0.60;99.90;;;1.17;73.40;94621.41;5049147;28;20179;-71
2021/03/18 01:43:57;;;;;;;8.73;7.70;;;0.50;99.90;;;1.16;73.10;94625.00;5033165;28;20180;-71
2021/03/18 01:46:25;;;;;;;9.13;6.83;;;0.50;99.90;;;1.03;73.88;94616.09;5047676;28;20325;-71
2021/03/18 01:48:52;;;;;;;8.30;6.77;;;0.50;99.90;;;1.00;73.76;94620.88;5052551;28;20184;-71
2021/03/18 01:51:22;;;;;;;8.60;6.60;;;0.40;99.90;;;0.98;73.32;94613.22;5043139;28;20173;-71
2021/03/18 01:53:49;;;;;;;7.43;6.33;;;0.40;99.90;;;1.00;73.84;94616.47;5052115;28;20632;-71
2021/03/18 01:56:16;;;;;;;8.23;7.30;;;0.40;99.90;;;1.18;73.77;94630.84;5068984;28;20317;-71
2021/03/18 01:58:47;;;;;;;7.23;6.00;;;0.50;99.90;;;1.13;73.82;94609.72;5051124;28;20187;-70
2021/03/18 02:01:15;;;;;;;7.00;6.17;;;0.50;99.90;;;1.19;73.63;94616.78;5030411;28;20233;-71
2021/03/18 02:03:42;;;;;;;6.80;5.90;;;0.60;99.90;;;1.11;74.00;94612.50;5052649;28;20164;-70
2021/03/18 02:06:08;;;;;;;7.07;5.70;;;0.50;99.90;;;1.12;73.61;94608.09;5052846;28;20256;-71
2021/03/18 02:08:35;;;;;;;6.63;5.53;;;0.60;99.90;;;1.04;73.99;94611.69;5052070;28;20656;-70
2021/03/18 02:11:02;;;;;;;6.13;5.53;;;0.50;99.90;;;1.01;73.34;94604.19;5065409;28;20208;-70
2021/03/18 02:13:31;;;;;;;6.07;5.30;;;0.40;99.90;;;0.92;73.49;94594.91;5069559;28;20180;-70
2021/03/18 02:16:03;;;;;;;7.27;5.93;;;0.40;99.90;;;0.87;73.67;94600.69;5063533;28;20175;-70
2021/03/18 02:19:29;;;;;;;9.10;6.00;;;0.30;99.90;;;0.82;74.17;94617.91;5051952;28;20176;-69
2021/03/18 02:22:43;;;;;;;8.60;6.77;;;0.20;99.90;;;0.88;73.86;94594.47;5025490;28;20221;-70
2021/03/18 02:25:27;;;;;;;6.93;5.57;;;0.30;99.90;;;0.92;73.96;94589.69;5033903;28;20212;-70
2021/03/18 02:28:39;;;;;;;7.60;5.80;;;0.30;99.90;;;0.91;74.02;94585.47;5022711;28;20565;-71
2021/03/18 02:31:11;;;;;;;7.63;5.43;;;0.30;99.90;;;0.91;73.50;94588.88;5036504;28;20299;-71
2021/03/18 02:34:04;;;;;;;7.17;5.23;;;0.30;99.90;;;0.92;73.92;94598.31;5048588;28;20191;-73
2021/03/18 02:36:36;;;;;;;6.40;5.03;;;0.30;99.90;;;0.95;74.06;94595.34;5019887;28;20180;-70
2021/03/18 02:39:13;;;;;;;8.40;5.13;;;0.30;99.90;;;0.95;73.98;94584.09;5009676;28;20243;-71
2021/03/18 02:41:46;;;;;;;5.37;4.87;;;0.40;99.90;;;0.99;73.86;94582.72;5001915;28;20203;-70
2021/03/18 02:44:24;;;;;;;5.67;5.00;;;0.40;99.90;;;0.99;74.25;94578.31;5004141;28;20236;-71
2021/03/18 02:47:04;;;;;;;5.43;4.93;;;0.40;99.90;;;1.10;74.08;94587.44;5057004;28;20250;-71
2021/03/18 02:49:34;;;;;;;5.93;5.00;;;0.50;99.90;;;0.97;73.67;94585.50;5036127;28;20168;-73
2021/03/18 02:52:02;;;;;;;6.93;5.73;;;0.40;99.90;;;1.09;73.59;94596.25;5030984;28;20625;-70
2021/03/18 02:54:29;;;;;;;6.73;5.30;;;0.50;99.90;;;0.94;74.12;94588.50;5006099;28;20179;-71
2021/03/18 02:57:01;;;;;;;6.07;4.83;;;0.40;99.90;;;0.95;74.17;94589.31;5015263;28;20168;-71
2021/03/18 02:59:34;;;;;;;6.10;4.70;;;0.40;99.90;;;0.90;73.46;94592.50;5052228;28;20565;-70
2021/03/18 03:02:04;;;;;;;7.10;5.37;;;0.40;99.90;;;0.88;74.13;94597.09;5048378;28;20187;-71
2021/03/18 03:04:35;;;;;;;7.73;5.70;;;0.40;99.90;;;0.84;73.75;94601.06;5031717;28;20192;-70
2021/03/18 03:07:05;;;;;;;8.43;4.87;;;0.30;99.90;;;0.78;74.05;94601.81;5050983;28;20184;-71
2021/03/18 03:09:34;;;;;;;6.63;5.10;;;0.20;99.90;;;0.76;74.06;94603.00;5066841;28;20211;-71
2021/03/18 03:12:06;;;;;;;6.03;5.33;;;0.20;99.90;;;0.76;73.77;94606.41;5045161;28;20188;-70
2021/03/18 03:14:33;;;;;;;8.53;6.40;;;0.20;99.90;;;0.73;74.15;94608.59;5067929;28;20175;-71
2021/03/18 03:17:01;;;;;;;6.90;5.33;;;0.10;99.90;;;0.79;74.25;94602.63;5050651;28;20171;-70
2021/03/18 03:19:31;;;;;;;6.70;5.50;;;0.10;99.90;;;0.71;74.05;94587.91;5077972;28;20739;-71
2021/03/18 03:21:58;;;;;;;6.30;5.37;;;0.00;99.90;;;0.77;74.21;94602.78;5047482;28;20609;-71
2021/03/18 03:24:25;;;;;;;7.73;5.37;;;0.00;99.90;;;0.71;74.10;94590.50;5048632;28;20189;-70
2021/03/18 03:26:55;;;;;;;6.90;6.00;;;0.10;99.90;;;0.69;73.86;94592.50;5026529;28;20231;-70
2021/03/18 03:29:22;;;;;;;8.47;6.50;;;0.00;99.90;;;0.67;74.33;94598.91;5050770;28;20171;-71
2021/03/18 03:31:53;;;;;;;8.27;6.33;;;0.00;99.90;;;0.62;74.43;94612.50;5047910;28;20254;-70
2021/03/18 03:34:22;;;;;;;13.53;7.83;;;0.00;99.90;;;0.65;74.05;94604.31;5032770;28;20195;-70
2021/03/18 03:36:48;;;;;;;10.93;6.67;;;0.00;99.90;;;0.67;74.15;94610.13;5033920;28;20179;-71
2021/03/18 03:39:17;;;;;;;8.97;6.73;;;0.00;99.90;;;0.68;73.73;94624.78;5050542;28;20241;-70
2021/03/18 03:41:44;;;;;;;8.77;7.23;;;0.00;99.90;;;0.81;74.68;94627.53;5075847;28;20249;-71
2021/03/18 03:44:10;;;;;;;8.27;7.03;;;0.10;99.90;;;0.86;74.74;94621.75;5076128;28;20678;-71
2021/03/18 03:46:36;;;;;;;7.97;6.37;;;0.10;99.90;;;0.92;74.09;94624.41;5064810;28;20212;-71
2021/03/18 03:49:04;;;;;;;8.37;7.27;;;0.20;99.90;;;0.88;73.69;94628.38;5066916;28;20184;-71
2021/03/18 03:51:59;;;;;;;8.77;6.57;;;0.20;99.90;;;0.88;74.86;94631.00;5050991;28;20167;-71
2021/03/18 03:54:28;;;;;;;7.80;6.40;;;0.20;99.90;;;0.93;74.33;94640.88;5051409;28;20707;-71
2021/03/18 03:57:05;;;;;;;7.70;5.87;;;0.20;99.90;;;0.98;74.38;94628.88;5047477;28;20229;-71
2021/03/18 03:59:37;;;;;;;8.47;6.03;;;0.30;99.90;;;0.90;74.04;94626.41;5014364;28;20168;-72
2021/03/18 04:02:05;;;;;;;7.67;6.17;;;0.20;99.90;;;0.86;74.46;94624.38;5045140;28;20188;-71
2021/03/18 04:04:50;;;;;;;9.77;6.07;;;0.20;99.90;;;0.73;74.09;94629.47;5045816;28;20203;-71
2021/03/18 04:07:30;;;;;;;9.83;6.60;;;0.10;99.90;;;0.66;74.27;94632.00;5066279;28;20259;-71
2021/03/18 04:10:00;;;;;;;7.73;6.23;;;0.00;99.90;;;0.72;74.18;94628.66;5062887;28;20179;-71
2021/03/18 04:12:37;;;;;;;8.20;6.73;;;0.00;99.90;;;0.63;74.17;94640.19;5052004;28;20557;-71
2021/03/18 04:15:14;;;;;;;8.23;6.90;;;0.00;99.90;;;0.59;74.21;94640.75;5049070;28;20715;-71
2021/03/18 04:17:51;;;;;;;9.97;7.00;;;-0.10;99.90;;;0.51;74.16;94644.28;5032957;28;20187;-71
2021/03/18 04:20:22;;;;;;;9.47;8.00;;;-0.10;99.90;;;0.63;74.39;94650.63;5028600;28;20515;-71
2021/03/18 04:22:54;;;;;;;10.20;8.10;;;0.00;99.90;;;0.62;73.97;94649.00;5049819;28;20198;-71
2021/03/18 04:25:22;;;;;;;8.43;6.57;;;0.00;99.90;;;0.77;74.24;94648.97;5048084;28;20690;-71
2021/03/18 04:27:52;;;;;;;10.60;7.03;;;0.10;99.90;;;0.89;74.18;94650.06;5046209;28;20165;-71
2021/03/18 04:30:24;;;;;;;7.80;6.60;;;0.20;99.90;;;0.88;74.24;94648.44;5066314;28;20245;-71
2021/03/18 04:32:51;;;;;;;9.53;6.57;;;0.20;99.90;;;0.91;74.07;94646.28;5065938;28;20180;-71
2021/03/18 04:35:21;;;;;;;7.67;6.07;;;0.20;99.90;;;0.88;74.65;94651.06;5064693;28;20215;-71
2021/03/18 04:37:47;;;;;;;11.20;7.10;;;0.20;99.90;;;0.85;74.21;94654.03;5048775;28;20179;-71
2021/03/18 04:40:16;;;;;;;8.43;6.83;;;0.20;99.90;;;0.86;74.48;94640.81;5049045;28;20613;-71
2021/03/18 04:42:42;;;;;;;9.33;7.00;;;0.30;99.90;;;0.91;73.87;94648.88;5033110;28;20175;-71
2021/03/18 04:45:11;;;;;;;10.20;7.03;;;0.30;99.90;;;1.01;74.56;94649.38;5032236;28;20207;-70
2021/03/18 04:47:41;;;;;;;11.17;6.93;;;0.30;99.90;;;0.95;74.50;94644.09;5049750;28;20164;-70
2021/03/18 04:50:11;;;;;;;9.67;6.87;;;0.30;99.90;;;0.94;74.31;94642.50;5046254;28;20165;-70
2021/03/18 04:52:40;;;;;;;8.30;6.37;;;0.30;99.90;;;0.92;74.70;94632.25;5029660;28;20168;-70
2021/03/18 04:55:09;;;;;;;8.97;6.63;;;0.30;99.90;;;1.04;74.12;94638.56;5027019;28;20188;-70
2021/03/18 04:57:42;;;;;;;8.13;6.30;;;0.40;99.90;;;0.99;74.72;94647.94;5066333;28;20249;-70
2021/03/18 05:00:10;;;;;;;9.33;6.43;;;0.30;99.90;;;0.89;74.63;94652.69;5062225;28;20204;-71
2021/03/18 05:02:38;;;;;;;8.03;6.70;;;0.30;99.90;;;0.83;74.91;94643.00;5041704;28;20203;-70
2021/03/18 05:05:11;;;;;;;10.43;6.83;;;0.20;99.90;;;0.85;74.30;94649.63;5064090;28;20195;-70
2021/03/18 05:07:44;;;;;;;8.90;6.70;;;0.20;99.90;;;0.80;74.50;94652.00;5029502;28;20302;-72
2021/03/18 05:10:18;;;;;;;8.63;6.97;;;0.10;99.90;;;0.67;74.47;94651.84;5060892;28;20616;-70
2021/03/18 05:12:46;;;;;;;10.07;6.83;;;0.00;99.90;;;0.69;74.74;94652.50;5032005;28;20670;-70
2021/03/18 05:15:14;;;;;;;10.20;7.53;;;0.00;99.90;;;0.61;74.71;94644.78;5065860;28;20187;-71
2021/03/18 05:17:42;;;;;;;9.80;7.20;;;0.00;99.90;;;0.57;74.33;94640.94;5049680;28;20179;-70
2021/03/18 05:20:12;;;;;;;10.13;7.33;;;-0.10;99.90;;;0.56;74.71;94639.31;5032338;28;20244;-70
2021/03/18 05:22:40;;;;;;;10.93;7.57;;;-0.10;99.90;;;0.55;74.52;94642.91;5082754;28;20164;-70
2021/03/18 05:25:11;;;;;;;10.40;7.00;;;-0.10;99.90;;;0.52;74.69;94635.47;5077070;28;20666;-70
2021/03/18 05:27:38;;;;;;;10.63;7.57;;;-0.10;99.90;;;0.65;74.55;94650.44;5071559;28;20184;-70
2021/03/18 05:30:11;;;;;;;10.10;7.23;;;-0.10;99.90;;;0.66;74.61;94647.66;5059777;28;20176;-71
2021/03/18 05:32:37;;;;;;;10.43;7.90;;;0.00;99.90;;;0.67;74.22;94651.84;5031623;28;20655;-69
2021/03/18 05:35:07;;;;;;;8.93;7.00;;;0.00;99.90;;;0.60;74.33;94645.78;5048220;28;20659;-70
2021/03/18 05:37:33;;;;;;;9.43;7.07;;;-0.10;99.90;;;0.65;74.75;94664.28;5032701;28;20275;-70
2021/03/18 05:39:59;;;;;;;9.23;6.90;;;-0.10;99.90;;;0.59;74.95;94654.59;5052414;28;20733;-70
2021/03/18 05:42:25;;;;;;;10.60;7.07;;;0.00;99.90;;;0.74;74.76;94665.78;5057133;28;20274;-70
2021/03/18 05:44:50;;;;;;;9.00;7.07;;;0.00;99.90;;;0.86;74.17;94655.66;5051988;28;20350;-70
2021/03/18 05:47:18;;;;;;;7.23;6.53;;;0.10;99.90;;;0.87;74.97;94657.28;5054124;28;20192;-70
2021/03/18 05:49:45;;;;;;;12.67;6.93;;;0.10;99.90;;;0.92;74.98;94649.69;5052740;28;20175;-70
2021/03/18 05:52:12;;;;;;;9.87;7.17;;;0.20;99.90;;;1.04;74.49;94651.59;5067112;28;20200;-71
2021/03/18 05:54:46;;;;;;;8.57;7.10;;;0.30;99.90;;;1.04;74.87;94658.66;5051768;28;20191;-70
2021/03/18 05:57:16;;;;;;;11.27;7.43;;;0.30;99.90;;;1.00;74.60;94654.78;5065951;28;20301;-70
2021/03/18 05:59:50;;;;;;;10.30;7.10;;;0.30;99.90;;;0.99;74.44;94656.59;5052027;28;20329;-71
2021/03/18 06:02:16;;;;;;;11.47;6.73;;;0.40;99.90;;;1.06;74.49;94654.03;5056021;28;20192;-70
2021/03/18 06:04:42;;;;;;;8.73;7.40;;;0.40;99.90;;;0.96;74.95;94656.97;5068477;28;20199;-70
2021/03/18 06:07:09;;;;;;;8.67;6.77;;;0.30;99.90;;;1.09;74.56;94655.47;5034591;28;20234;-72
2021/03/18 06:09:37;;;;;;;8.77;6.80;;;0.30;99.90;;;1.14;74.43;94642.66;5069149;28;20263;-68
2021/03/18 06:12:04;;;;;;;11.73;8.27;;;0.40;99.90;;;1.17;74.66;94634.47;5057602;28;20188;-71
2021/03/18 06:14:34;;;;;;;9.30;7.10;;;0.40;99.90;;;1.28;74.71;94660.03;5047985;28;20176;-71
2021/03/18 06:17:04;;;;;;;8.27;7.20;;;0.50;99.90;;;1.41;75.05;94652.31;5024408;28;20185;-70
2021/03/18 06:19:32;;;;;;;9.00;7.23;;;0.60;99.90;;;1.47;74.45;94647.16;5031897;28;20198;-69
2021/03/18 06:21:59;;;;;;;12.53;7.70;;;0.70;99.90;;;1.64;74.94;94649.47;5045484;28;20231;-70
2021/03/18 06:24:28;;;;;;;13.03;7.67;;;0.90;99.90;;;1.70;75.11;94649.50;5051912;28;20172;-70
2021/03/18 06:26:55;;;;;;;8.53;6.87;;;1.00;99.90;;;1.90;74.92;94644.38;5047859;28;20642;-70
2021/03/18 06:29:40;;;;;;;10.17;6.83;;;1.10;99.90;;;2.01;74.40;94657.69;5068083;28;20173;-70
2021/03/18 06:32:12;;;;;;;9.43;7.17;;;1.30;99.90;;;2.38;74.50;94658.28;5034875;28;20203;-69
2021/03/18 06:34:44;;;;;;;6.67;5.90;;;1.60;99.90;;;2.51;74.61;94645.25;5068468;28;20187;-70
2021/03/18 06:37:43;;;;;;;10.27;7.17;;;1.80;99.90;;;2.63;74.79;94648.91;5051377;28;20191;-70
2021/03/18 06:40:15;;;;;;;9.97;7.63;;;1.90;99.90;;;2.68;75.55;94645.72;5049131;28;20188;-70
2021/03/18 06:42:59;;;;;;;9.10;7.50;;;2.00;99.90;;;3.02;74.98;94656.84;5075513;28;20170;-70
2021/03/18 06:45:34;;;;;;;11.40;7.57;;;2.30;99.90;;;3.36;75.44;94647.19;5052818;28;20223;-70
2021/03/18 06:48:16;;;;;;;7.50;6.57;;;2.70;99.90;;;3.47;75.30;94652.63;5034603;28;20203;-70
2021/03/18 06:50:48;;;;;;;7.60;6.73;;;2.90;99.90;;;3.61;75.30;94642.97;5048474;28;20660;-70
2021/03/18 06:53:28;;;;;;;7.97;6.63;;;3.10;99.90;;;3.98;75.24;94644.09;5064030;28;20169;-70
2021/03/18 06:55:57;;;;;;;7.37;6.23;;;3.40;99.90;;;4.62;74.90;94672.94;5064759;28;20186;-70
2021/03/18 06:58:28;;;;;;;8.17;6.20;;;3.80;99.90;;;5.08;75.37;94673.50;5066040;28;20180;-70
2021/03/18 07:01:06;;;;;;;7.30;6.37;;;4.30;99.90;;;5.48;74.96;94652.22;5052714;28;20204;-70
2021/03/18 07:03:38;;;;;;;7.33;6.50;;;4.80;99.90;;;5.68;75.36;94647.59;5034664;28;20204;-70
2021/03/18 07:06:24;;;;;;;7.23;6.17;;;5.20;99.90;;;5.77;74.86;94654.22;5063942;28;20273;-70
2021/03/18 07:09:11;;;;;;;9.77;7.03;;;5.50;99.90;;;5.97;74.91;94636.44;5067298;28;20169;-70
2021/03/18 07:11:47;;;;;;;8.50;6.53;;;5.90;99.90;;;6.12;75.04;94629.00;5040631;28;20601;-70
2021/03/18 07:14:13;;;;;;;7.60;6.17;;;6.10;99.90;;;6.01;74.73;94626.28;5054944;28;20529;-72
2021/03/18 07:16:48;;;;;;;8.60;6.23;;;6.10;99.90;;;5.74;74.72;94656.47;5045945;28;20187;-72
2021/03/18 07:19:26;;;;;;;8.57;7.13;;;5.90;99.90;;;5.20;74.72;94642.13;5050743;28;20227;-71
2021/03/18 07:21:54;;;;;;;9.47;7.07;;;5.30;99.90;;;5.06;74.70;94657.16;5051083;28;20172;-71
2021/03/18 07:24:32;;;;;;;8.07;6.90;;;5.10;99.90;;;4.92;74.66;94637.25;5050131;28;20275;-71
2021/03/18 07:27:14;;;;;;;10.30;7.43;;;5.00;99.90;;;5.02;74.35;94649.91;5068613;28;20699;-71
2021/03/18 07:29:51;;;;;;;9.07;7.20;;;5.00;99.90;;;4.79;74.22;94631.28;5081795;28;20586;-71
2021/03/18 07:32:18;;;;;;;8.13;7.23;;;4.80;99.90;;;4.23;74.04;94626.66;5046600;28;20219;-71
2021/03/18 07:34:44;;;;;;;8.40;6.70;;;4.30;99.90;;;4.19;74.33;94638.59;5051521;28;20206;-71
2021/03/18 07:37:11;;;;;;;8.83;7.03;;;4.10;99.90;;;4.26;73.86;94649.06;5034400;28;20589;-71
2021/03/18 07:39:41;;;;;;;9.73;7.50;;;3.90;99.90;;;4.60;74.24;94652.16;5051484;28;20538;-71
2021/03/18 07:42:09;;;;;;;8.07;7.27;;;4.20;99.90;;;4.84;74.32;94655.06;5065108;28;20180;-71
2021/03/18 07:44:37;;;;;;;9.53;7.00;;;4.30;99.90;;;5.66;74.51;94634.69;5048964;28;20656;-71
2021/03/18 07:47:04;;;;;;;8.87;7.10;;;5.00;99.90;;;6.75;74.23;94665.50;5045831;28;20186;-71
2021/03/18 07:49:52;;;;;;;10.97;7.43;;;5.90;99.90;;;7.19;74.75;94648.50;5052409;28;20188;-71
2021/03/18 07:52:29;;;;;;;7.77;6.97;;;6.80;99.90;;;7.19;74.14;94644.03;5041487;28;20833;-71
2021/03/18 07:54:59;;;;;;;8.47;7.20;;;7.00;99.90;;;6.82;74.68;94602.19;5050020;28;20181;-71
2021/03/18 07:57:50;;;;;;;8.00;7.17;;;6.90;99.90;;;6.18;74.39;94620.22;5066569;28;20239;-71
2021/03/18 08:00:22;;;;;;;10.13;7.67;;;6.40;99.90;;;5.81;74.10;94617.75;5032557;28;20183;-72
2021/03/18 08:02:52;;;;;;;7.63;6.83;;;6.20;99.90;;;5.56;73.84;94602.00;5050076;28;20621;-72
2021/03/18 08:05:48;;;;;;;10.80;7.83;;;5.90;99.90;;;5.22;74.25;94632.19;5065329;28;20204;-71
2021/03/18 08:08:32;;;;;;;9.23;7.70;;;5.60;99.90;;;5.12;73.73;94643.19;5049949;28;20293;-71
2021/03/18 08:11:10;;;;;;;8.73;7.70;;;5.40;99.90;;;5.01;73.51;94645.66;5033950;28;20193;-71
2021/03/18 08:13:40;;;;;;;10.63;7.73;;;5.10;99.90;;;5.10;73.46;94631.28;5043777;28;20189;-72
2021/03/18 08:16:09;;;;;;;9.07;7.57;;;5.20;99.90;;;5.27;73.87;94649.97;5039699;28;20241;-71
2021/03/18 08:18:40;;;;;;;9.73;8.30;;;5.30;99.90;;;5.35;73.42;94634.72;5054819;28;20534;-71
2021/03/18 08:21:08;;;;;;;8.63;7.73;;;5.40;99.90;;;5.17;73.51;94632.81;5034382;28;20204;-70
2021/03/18 08:23:39;;;;;;;10.53;7.83;;;5.40;99.90;;;5.40;73.47;94636.72;5058164;28;20612;-72
2021/03/18 08:26:12;;;;;;;10.77;8.73;;;5.50;99.90;;;5.35;73.51;94647.06;5044687;28;20217;-72
2021/03/18 08:28:41;;;;;;;9.20;8.13;;;5.30;99.90;;;5.45;73.39;94635.06;5018749;28;20189;-73
2021/03/18 08:31:12;;;;;;;11.53;9.60;;;5.40;99.90;;;5.68;73.81;94652.84;5034870;28;20688;-72
2021/03/18 08:33:46;;;;;;;17.07;15.27;;;5.50;99.90;;;5.66;73.17;94636.50;5043046;28;20224;-72
2021/03/18 08:36:25;;;;;;;12.27;10.97;;;5.50;99.90;;;5.94;73.59;94644.75;5031278;28;20241;-72
2021/03/18 08:38:58;;;;;;;12.43;9.53;;;5.70;99.90;;;6.02;73.48;94641.84;5047782;28;20278;-72
2021/03/18 08:41:38;;;;;;;11.63;10.10;;;5.80;99.90;;;6.13;73.48;94643.75;5050855;28;20219;-72
2021/03/18 08:44:31;;;;;;;11.23;8.50;;;6.00;99.90;;;5.94;73.03;94642.13;5020404;28;20734;-72
2021/03/18 08:47:06;;;;;;;10.43;9.33;;;6.00;99.90;;;6.12;73.23;94639.50;5061315;28;20213;-72
2021/03/18 08:49:36;;;;;;;9.13;8.23;;;6.10;99.90;;;6.54;72.88;94660.72;5058778;28;20178;-71
2021/03/18 08:52:38;;;;;;;7.93;7.13;;;6.40;99.90;;;8.61;72.94;94747.72;5065078;28;20176;-71
2021/03/18 08:55:08;;;;;;;7.30;6.60;;;7.40;99.90;;;13.27;73.30;94786.44;5047434;28;20200;-71
2021/03/18 08:57:35;;;;;;;6.95;6.25;;;12.10;99.90;;;16.89;73.29;94727.16;5058035;28;20462;-71
2021/03/18 09:00:18;;;;;;;5.50;5.00;;;16.60;98.80;;;19.40;73.28;94678.09;5060381;28;20299;-70
2021/03/18 09:02:44;;;;;;;5.90;5.40;;;20.20;77.40;;;21.63;73.10;94713.09;5049061;28;20195;-71
2021/03/18 09:05:21;;;;;;;5.93;5.40;;;23.10;68.80;;;22.66;72.84;94673.50;5041256;28;20236;-70
2021/03/18 09:07:53;;;;;;;5.30;4.80;;;25.20;55.40;;;24.22;71.84;94545.13;5050621;28;20186;-71
2021/03/18 09:10:29;;;;;;;5.73;5.23;;;27.50;51.00;;;25.26;71.49;94658.69;5028018;28;20189;-70
2021/03/18 09:12:59;;;;;;;6.00;5.40;;;28.60;47.80;;;25.52;71.49;94543.22;5048671;28;20698;-72
2021/03/18 09:15:32;;;;;;;5.63;5.20;;;29.40;46.20;;;25.58;70.65;94622.53;5034074;28;20185;-72
2021/03/18 09:18:29;;;;;;;5.30;4.90;;;30.00;44.40;;;25.96;69.96;94627.56;5043354;28;20177;-72
2021/03/18 09:21:12;;;;;;;5.10;4.60;;;30.90;42.60;;;26.67;69.24;94635.03;5053333;28;20871;-72
2021/03/18 09:23:41;;;;;;;4.70;4.20;;;31.10;42.20;;;26.75;68.81;94576.97;5053312;28;20187;-72
2021/03/18 09:26:13;;;;;;;5.03;4.63;;;31.70;40.70;;;25.64;67.97;94707.28;5046429;28;20201;-72
2021/03/18 09:28:43;;;;;;;4.53;4.13;;;29.90;43.70;;;25.97;67.75;94526.69;5052870;28;20834;-72
2021/03/18 09:31:12;;;;;;;4.53;4.23;;;30.20;40.70;;;22.49;67.08;94506.78;5053180;28;20495;-72
2021/03/18 09:33:44;;;;;;;4.23;3.93;;;27.50;41.90;;;22.21;66.61;94575.81;5051916;28;20193;-71
2021/03/18 09:36:16;;;;;;;4.80;4.40;;;26.20;42.90;;;24.72;65.92;94652.56;5028455;28;20214;-71
2021/03/18 09:39:02;;;;;;;4.50;4.10;;;27.70;43.60;;;24.84;65.58;94633.66;5015130;28;20194;-73
2021/03/18 09:41:38;;;;;;;4.77;4.37;;;28.10;41.80;;;24.61;65.21;94676.59;5031068;28;20181;-73
2021/03/18 09:44:10;;;;;;;4.70;4.30;;;27.60;42.20;;;26.34;64.54;94586.38;5034523;28;20204;-73
2021/03/18 09:46:39;;;;;;;4.73;4.33;;;29.20;42.00;;;25.52;64.53;94581.25;5026753;28;20293;-73
2021/03/18 09:49:05;;;;;;;4.30;4.00;;;29.30;41.50;;;26.97;63.91;94587.28;5035201;28;20242;-73
2021/03/18 09:51:43;;;;;;;4.40;3.83;;;30.60;41.10;;;25.84;63.55;94416.50;5015273;28;20186;-73
2021/03/18 09:54:14;;;;;;;4.60;4.30;;;30.30;38.50;;;25.06;62.95;94572.75;5031301;28;20188;-73
2021/03/18 09:56:45;;;;;;;5.17;4.70;;;29.30;40.90;;;26.09;62.23;94525.06;5046619;28;20650;-72
2021/03/18 09:59:12;;;;;;;4.80;4.40;;;29.90;40.00;;;23.58;62.27;94386.91;5043958;28;20680;-71
2021/03/18 10:01:39;;;;;;;4.37;3.97;;;28.40;40.90;;;19.72;61.83;94377.75;5035803;28;20758;-71
2021/03/18 10:04:19;;;;;;;5.47;4.97;;;24.50;45.30;;;16.27;61.23;94503.25;5037173;28;20184;-70
2021/03/18 10:06:48;;;;;;;4.90;4.50;;;20.40;49.70;;;19.45;60.76;94696.00;5047859;28;20221;-71
2021/03/18 10:09:33;;;;;;;5.50;4.10;;;20.90;50.20;;;22.52;60.42;94686.38;5047784;28;20168;-72
2021/03/18 10:12:11;;;;;;;4.40;3.87;;;24.10;46.60;;;23.28;59.90;94602.63;5043454;28;20845;-73
2021/03/18 10:14:53;;;;;;;4.27;3.87;;;25.40;45.00;;;25.13;59.78;94613.69;5053563;28;20234;-74
2021/03/18 10:17:27;;;;;;;3.90;3.60;;;27.10;43.60;;;26.27;59.31;94589.69;5043858;28;20597;-73
2021/03/18 10:20:10;;;;;;;4.50;4.10;;;28.30;41.90;;;25.38;59.28;94578.06;5035085;28;20188;-73
2021/03/18 10:22:40;;;;;;;5.23;3.60;;;28.00;41.60;;;25.55;58.89;94481.25;5066420;28;20267;-72
2021/03/18 10:25:12;;;;;;;4.23;3.90;;;28.40;39.50;;;25.28;58.44;94588.59;5062881;28;20200;-72
2021/03/18 10:27:46;;;;;;;4.07;3.77;;;27.70;40.70;;;25.88;58.03;94508.97;5062323;28;20188;-72
2021/03/18 10:30:21;;;;;;;4.43;4.03;;;29.10;41.70;;;26.34;57.72;94515.69;5066180;28;20183;-73
2021/03/18 10:33:21;;;;;;;3.53;3.23;;;29.50;38.60;;;26.09;57.29;94525.84;5051488;28;20649;-72
2021/03/18 10:35:53;;;;;;;4.00;3.60;;;29.60;39.10;;;27.04;56.54;94454.09;4977886;28;20205;-73
2021/03/18 10:38:36;;;;;;;3.73;3.43;;;30.60;38.40;;;26.48;56.17;94562.28;4971758;28;20192;-72
2021/03/18 10:41:18;;;;;;;4.30;3.90;;;29.80;38.30;;;26.28;55.59;94557.84;4962745;28;20342;-73
2021/03/18 10:43:48;;;;;;;4.47;4.07;;;29.20;39.70;;;25.05;55.60;94420.03;4975391;28;20209;-73
2021/03/18 10:46:25;;;;;;;4.60;4.23;;;28.50;40.10;;;24.02;55.02;94502.59;4964681;28;20246;-72
2021/03/18 10:48:54;;;;;;;4.80;4.40;;;27.30;41.50;;;23.34;54.84;94365.94;4963673;28;20189;-72
2021/03/18 10:51:22;;;;;;;4.80;4.40;;;27.10;41.60;;;20.61;54.62;94460.94;4963725;28;20288;-72